Time;durP1;ratioP1;P1;durP2;ratioP2;P2;SDS_P1;SDS_P2;PMS_P1;PMS_P2;Temp;Humidity;BMP_temperature;BMP_pressure;BME280_temperature;BME280_humidity;BME280_pressure;Samples;Min_cycle;Max_cycle;Signal;HPM_P1;HPM_P2
2023/03/13 00:03:51;;;;;;;8.80;2.38;;;;;;;7.35;100.00;97583.84;15309237;19;20003;-83
2023/03/13 00:09:19;;;;;;;10.60;2.50;;;;;;;7.36;100.00;97577.47;15317506;19;20398;-85
2023/03/13 00:14:43;;;;;;;10.75;2.58;;;;;;;7.39;100.00;97561.09;15322961;19;20010;-83
2023/03/13 00:20:16;;;;;;;8.52;2.38;;;;;;;7.36;100.00;97564.06;15311964;19;20015;-83
2023/03/13 00:25:41;;;;;;;10.40;2.50;;;;;;;7.46;100.00;97565.81;15307454;19;20010;-83
2023/03/13 00:31:13;;;;;;;9.57;2.67;;;;;;;7.50;100.00;97562.63;15304034;19;20015;-83
2023/03/13 00:36:40;;;;;;;11.25;2.55;;;;;;;7.49;100.00;97549.38;15304508;19;20022;-81
2023/03/13 00:42:06;;;;;;;7.93;2.30;;;;;;;7.51;100.00;97558.09;15301727;19;20086;-84
2023/03/13 00:47:32;;;;;;;9.93;2.67;;;;;;;7.44;100.00;97543.69;15303771;19;20014;-83
2023/03/13 00:52:59;;;;;;;12.82;2.70;;;;;;;7.31;100.00;97542.31;15301872;19;20010;-82
2023/03/13 00:58:25;;;;;;;9.23;2.65;;;;;;;7.27;100.00;97540.94;15309981;19;20014;-83
2023/03/13 01:03:53;;;;;;;10.32;2.75;;;;;;;7.23;100.00;97539.59;15312778;19;20010;-84
2023/03/13 01:09:21;;;;;;;9.75;2.63;;;;;;;7.21;100.00;97530.88;15311644;19;20070;-84
2023/03/13 01:14:45;;;;;;;11.07;2.88;;;;;;;7.22;100.00;97522.69;15309117;19;20025;-84
2023/03/13 01:20:12;;;;;;;9.18;2.50;;;;;;;7.21;100.00;97521.00;15356804;19;20836;-81
2023/03/13 01:25:47;;;;;;;10.50;2.55;;;;;;;7.25;100.00;97521.50;15363119;19;20478;-81
2023/03/13 01:36:58;;;;;;;10.45;2.53;;;;;;;7.22;100.00;97527.22;15367125;19;19979;-81
2023/03/13 01:42:25;;;;;;;10.18;2.53;;;;;;;7.26;100.00;97512.47;15371389;19;20003;-89
2023/03/13 01:47:50;;;;;;;12.32;2.50;;;;;;;7.26;100.00;97507.13;15375460;19;20003;-90
2023/03/13 01:53:29;;;;;;;8.85;2.55;;;;;;;7.27;100.00;97507.97;15373489;19;20010;-89
2023/03/13 01:59:02;;;;;;;12.20;2.67;;;;;;;7.25;100.00;97505.44;15368578;19;20007;-90
2023/03/13 02:04:30;;;;;;;12.95;2.70;;;;;;;7.27;100.00;97497.25;15369025;19;20003;-88
2023/03/13 02:09:58;;;;;;;11.48;2.88;;;;;;;7.24;100.00;97479.66;15365881;19;20036;-89
2023/03/13 02:15:27;;;;;;;13.30;2.78;;;;;;;7.25;100.00;97457.22;15367858;19;20002;-89
2023/03/13 02:20:57;;;;;;;9.23;2.40;;;;;;;7.32;100.00;97460.94;15364300;19;20002;-88
2023/03/13 02:26:25;;;;;;;11.20;2.70;;;;;;;7.40;100.00;97455.59;15366202;19;20013;-88
2023/03/13 02:31:50;;;;;;;9.68;2.60;;;;;;;7.34;100.00;97437.50;15372120;19;20017;-90
2023/03/13 02:37:30;;;;;;;9.98;2.40;;;;;;;7.41;100.00;97434.97;15375629;19;20043;-88
2023/03/13 02:43:04;;;;;;;10.27;2.80;;;;;;;7.41;100.00;97424.25;15371765;19;20035;-88
2023/03/13 02:48:39;;;;;;;11.18;2.58;;;;;;;7.37;100.00;97434.47;15372797;19;20011;-84
2023/03/13 02:54:18;;;;;;;12.25;2.88;;;;;;;7.50;100.00;97419.75;15336588;19;20011;-82
2023/03/13 02:59:56;;;;;;;8.73;2.22;;;;;;;7.48;100.00;97408.34;15307307;19;20450;-82
2023/03/13 03:05:43;;;;;;;9.75;2.22;;;;;;;7.52;100.00;97407.88;15302761;19;20033;-81
2023/03/13 03:11:09;;;;;;;9.50;2.45;;;;;;;7.51;100.00;97379.41;15304087;19;20022;-86
2023/03/13 03:16:45;;;;;;;8.85;2.45;;;;;;;7.66;100.00;97368.84;15304903;19;20039;-84
2023/03/13 03:22:12;;;;;;;9.23;2.50;;;;;;;7.68;100.00;97355.25;15302157;19;20027;-82
2023/03/13 03:27:38;;;;;;;9.55;2.35;;;;;;;7.79;100.00;97354.06;15300278;19;20019;-87
2023/03/13 03:33:10;;;;;;;12.70;2.95;;;;;;;7.89;100.00;97343.13;15307003;19;20511;-83
2023/03/13 03:38:35;;;;;;;11.23;2.60;;;;;;;8.05;100.00;97336.94;15302983;19;20384;-82
2023/03/13 03:44:02;;;;;;;9.93;2.47;;;;;;;8.02;100.00;97324.66;15300388;19;20014;-82
2023/03/13 03:49:40;;;;;;;8.43;2.33;;;;;;;8.17;100.00;97314.09;15301790;19;20270;-81
2023/03/13 03:55:07;;;;;;;9.68;2.45;;;;;;;8.27;100.00;97298.63;15302044;19;20010;-83
2023/03/13 11:27:05;;;;;;;1.10;0.30;;;;;;;13.84;100.00;96861.34;15295376;19;20011;-83
2023/03/13 11:32:40;;;;;;;0.52;0.28;;;;;;;13.94;100.00;96850.00;15315480;19;20011;-83
2023/03/13 11:38:06;;;;;;;1.05;0.30;;;;;;;14.23;100.00;96880.97;15313271;19;20031;-82
2023/03/13 11:43:45;;;;;;;0.30;0.30;;;;;;;14.22;100.00;96859.53;15310946;19;20352;-83
2023/03/13 11:49:28;;;;;;;1.45;0.38;;;;;;;14.62;100.00;96846.41;15312465;19;20082;-83
2023/03/13 11:55:04;;;;;;;0.55;0.30;;;;;;;14.90;100.00;96839.63;15313796;19;20035;-88
2023/03/13 12:00:41;;;;;;;0.82;0.30;;;;;;;14.99;100.00;96851.00;15314900;19;20015;-84
2023/03/13 12:06:14;;;;;;;0.32;0.30;;;;;;;15.18;100.00;96849.06;15315631;19;20025;-82
2023/03/13 12:11:49;;;;;;;0.95;0.32;;;;;;;15.05;100.00;96855.50;15315380;19;20054;-83
2023/03/13 12:17:24;;;;;;;0.70;0.40;;;;;;;15.10;100.00;96842.09;15312310;19;20010;-88
2023/03/13 12:22:54;;;;;;;0.70;0.30;;;;;;;15.06;100.00;96818.34;15304838;19;20011;-81
2023/03/13 12:28:37;;;;;;;0.85;0.30;;;;;;;15.06;100.00;96802.06;15307157;19;20018;-82
2023/03/13 12:34:14;;;;;;;0.95;0.40;;;;;;;15.02;100.00;96841.56;15310560;19;20025;-85
2023/03/13 12:39:46;;;;;;;0.38;0.25;;;;;;;15.04;100.00;96799.59;15306450;19;20085;-81
2023/03/13 12:45:17;;;;;;;0.47;0.38;;;;;;;15.02;100.00;96807.13;15300013;19;20015;-84
2023/03/13 12:50:59;;;;;;;0.90;0.40;;;;;;;15.03;100.00;96827.78;15304151;19;20463;-83
2023/03/13 12:56:39;;;;;;;1.15;0.50;;;;;;;15.07;100.00;96836.28;15307614;19;20378;-81
2023/03/13 13:02:23;;;;;;;0.80;0.40;;;;;;;14.89;100.00;96823.59;15309022;19;20014;-82
2023/03/13 13:07:58;;;;;;;0.35;0.35;;;;;;;14.82;100.00;96806.59;15308372;19;20025;-82
2023/03/13 13:13:47;;;;;;;0.30;0.30;;;;;;;14.71;100.00;96822.56;15310567;19;20086;-87
2023/03/13 13:19:43;;;;;;;1.10;0.55;;;;;;;14.71;100.00;96813.59;15302969;19;20018;-82
2023/03/13 13:25:30;;;;;;;0.63;0.40;;;;;;;14.64;100.00;96810.97;15304683;19;20014;-86
2023/03/13 13:30:58;;;;;;;0.70;0.40;;;;;;;14.85;100.00;96790.69;15304161;19;20006;-84
2023/03/13 13:36:55;;;;;;;0.63;0.43;;;;;;;15.00;100.00;96779.41;15306624;19;20006;-82
2023/03/13 13:42:51;;;;;;;1.50;0.40;;;;;;;14.94;100.00;96774.94;15299363;19;20074;-82
2023/03/13 13:48:31;;;;;;;3.40;0.50;;;;;;;14.96;100.00;96753.84;15299078;19;20011;-81
2023/03/13 13:53:59;;;;;;;1.05;0.38;;;;;;;15.00;100.00;96765.03;15299321;19;20022;-84
2023/03/13 13:59:47;;;;;;;2.03;0.40;;;;;;;15.14;100.00;96750.25;15297843;19;20094;-82
2023/03/13 14:05:23;;;;;;;0.60;0.50;;;;;;;15.07;100.00;96744.91;15299023;19;20024;-83
2023/03/13 14:10:50;;;;;;;0.98;0.40;;;;;;;14.94;100.00;96728.84;15296786;19;20014;-85
2023/03/13 14:16:27;;;;;;;0.93;0.40;;;;;;;15.01;100.00;96728.75;15299172;19;20010;-83
2023/03/13 14:21:52;;;;;;;1.13;0.50;;;;;;;14.99;100.00;96726.28;15292653;19;20450;-83
2023/03/13 14:27:26;;;;;;;1.42;0.45;;;;;;;14.86;100.00;96694.75;15300779;19;20038;-82
2023/03/13 14:32:55;;;;;;;1.00;0.43;;;;;;;14.91;100.00;96697.59;15295292;19;20006;-81
2023/03/13 14:38:28;;;;;;;0.50;0.30;;;;;;;15.14;100.00;96689.72;15297367;19;20014;-82
2023/03/13 14:43:54;;;;;;;1.00;0.50;;;;;;;15.49;100.00;96703.34;15286767;19;20010;-84
2023/03/13 14:49:31;;;;;;;0.80;0.60;;;;;;;15.92;100.00;96695.94;15293705;19;20014;-81
2023/03/13 14:55:01;;;;;;;1.17;0.60;;;;;;;15.79;100.00;96694.25;15298955;19;20471;-87
2023/03/13 15:00:47;;;;;;;0.68;0.50;;;;;;;15.52;100.00;96691.19;15301024;19;20026;-83
2023/03/13 15:06:24;;;;;;;2.50;0.60;;;;;;;15.56;100.00;96685.06;15301163;19;20014;-83
2023/03/13 15:12:01;;;;;;;1.25;0.50;;;;;;;15.80;100.00;96673.38;15297970;19;20015;-86
2023/03/13 15:17:31;;;;;;;0.80;0.40;;;;;;;15.45;100.00;96664.16;15299208;19;20011;-83
2023/03/13 15:22:53;;;;;;;1.13;0.47;;;;;;;15.48;100.00;96650.13;15286211;19;20011;-84
2023/03/13 15:28:22;;;;;;;2.83;0.70;;;;;;;15.52;100.00;96631.47;15287616;19;20078;-84
2023/03/13 15:34:03;;;;;;;1.30;0.73;;;;;;;15.53;100.00;96616.84;15307346;19;20014;-84
2023/03/13 15:40:08;;;;;;;2.15;0.90;;;;;;;15.41;100.00;96598.69;15295217;19;20112;-84
2023/03/13 15:45:33;;;;;;;1.10;0.70;;;;;;;15.82;100.00;96579.75;15282154;19;20078;-85
2023/03/13 15:51:01;;;;;;;1.10;0.70;;;;;;;15.97;100.00;96559.44;15309129;19;20035;-83
2023/03/13 15:56:32;;;;;;;1.30;0.70;;;;;;;15.91;100.00;96544.94;15322894;19;20022;-86
2023/03/13 16:01:57;;;;;;;1.52;0.57;;;;;;;15.71;100.00;96564.31;15322902;19;20479;-90
2023/03/13 16:07:24;;;;;;;1.50;0.70;;;;;;;15.60;100.00;96546.97;15317277;19;20061;-87
2023/03/13 16:12:54;;;;;;;1.67;0.80;;;;;;;15.47;100.00;96507.38;15335062;19;20360;-88
2023/03/13 16:18:42;;;;;;;1.15;0.75;;;;;;;15.40;100.00;96501.28;15322355;19;20542;-86
2023/03/13 16:24:09;;;;;;;2.10;0.85;;;;;;;15.39;100.00;96497.72;15323406;19;20025;-86
2023/03/13 16:29:39;;;;;;;2.67;0.88;;;;;;;15.36;100.00;96503.63;15319779;19;20070;-87
2023/03/13 16:35:06;;;;;;;2.58;0.77;;;;;;;15.29;100.00;96493.97;15319157;19;20010;-85
2023/03/13 16:40:33;;;;;;;1.67;0.85;;;;;;;15.26;100.00;96484.41;15312435;19;20014;-86
2023/03/13 16:46:05;;;;;;;2.22;0.65;;;;;;;15.22;100.00;96475.94;15330249;19;20015;-84
2023/03/13 16:51:35;;;;;;;1.90;0.80;;;;;;;15.22;100.00;96486.78;15315426;19;20086;-86
2023/03/13 16:57:03;;;;;;;0.82;0.70;;;;;;;15.31;100.00;96487.25;15305659;19;20085;-85
2023/03/13 17:02:30;;;;;;;2.63;1.70;;;;;;;15.29;100.00;96477.72;15306522;19;20016;-86
2023/03/13 17:07:57;;;;;;;0.95;0.80;;;;;;;15.17;100.00;96477.72;15316962;19;20014;-85
2023/03/13 17:13:24;;;;;;;2.28;0.90;;;;;;;15.19;100.00;96487.25;15310757;19;20025;-87
2023/03/13 17:18:58;;;;;;;1.70;0.80;;;;;;;15.27;100.00;96483.34;15309428;19;20097;-85
2023/03/13 17:24:24;;;;;;;3.20;0.80;;;;;;;15.17;100.00;96516.50;15304243;19;20726;-86
2023/03/13 17:29:56;;;;;;;3.97;1.25;;;;;;;14.70;100.00;96544.47;15313117;19;20021;-84
2023/03/13 20:58:54;;;;;;;0.70;0.52;;;;;;;11.63;100.00;96434.91;15295007;19;20018;-83
2023/03/13 21:04:19;;;;;;;0.93;0.50;;;;;;;11.53;100.00;96453.44;15300262;19;20014;-84
2023/03/13 21:09:44;;;;;;;0.63;0.60;;;;;;;11.54;100.00;96460.47;15306175;19;20031;-85
2023/03/13 21:15:19;;;;;;;0.93;0.70;;;;;;;11.59;100.00;96460.66;15298957;19;20014;-87
2023/03/13 21:20:43;;;;;;;1.38;0.80;;;;;;;11.56;100.00;96483.47;15292348;19;20011;-86
2023/03/13 21:26:08;;;;;;;1.65;0.63;;;;;;;11.43;100.00;96480.03;15291221;19;20011;-87
2023/03/13 21:31:35;;;;;;;0.60;0.60;;;;;;;11.30;100.00;96495.22;15294502;19;20413;-85
2023/03/13 21:37:02;;;;;;;4.32;0.70;;;;;;;11.23;100.00;96503.34;15295663;19;20020;-85
2023/03/13 21:42:27;;;;;;;0.82;0.73;;;;;;;11.24;100.00;96493.38;15296627;19;20015;-86
2023/03/13 21:47:55;;;;;;;1.08;0.55;;;;;;;11.29;100.00;96480.09;15296888;19;20020;-85
2023/03/13 21:53:20;;;;;;;0.90;0.60;;;;;;;11.29;100.00;96463.09;15292198;19;20021;-84
2023/03/13 21:58:53;;;;;;;2.00;1.00;;;;;;;11.33;100.00;96378.91;15294400;19;20558;-86
2023/03/13 22:04:20;;;;;;;1.58;0.60;;;;;;;11.21;100.00;96313.25;15290909;19;20019;-87
2023/03/13 22:09:45;;;;;;;0.95;0.50;;;;;;;11.23;100.00;96243.78;15299682;19;20003;-85
2023/03/13 22:15:11;;;;;;;1.00;0.60;;;;;;;11.30;100.00;96228.38;15290156;19;20074;-86
2023/03/13 22:20:39;;;;;;;0.63;0.40;;;;;;;11.47;100.00;96244.81;15288285;19;20585;-83
2023/03/13 22:26:03;;;;;;;0.40;0.38;;;;;;;11.48;100.00;96262.66;15286717;19;20014;-83
2023/03/13 22:31:28;;;;;;;1.35;0.45;;;;;;;11.38;100.00;96268.53;15291923;19;20020;-85
2023/03/13 22:36:55;;;;;;;1.00;0.40;;;;;;;10.96;100.00;96273.59;15287454;19;20746;-83
2023/03/13 22:42:20;;;;;;;0.30;0.30;;;;;;;11.44;100.00;96279.50;15292509;19;20027;-84
2023/03/13 22:47:44;;;;;;;0.63;0.40;;;;;;;11.31;100.00;96273.16;15294621;19;20021;-85
2023/03/13 22:53:13;;;;;;;0.77;0.50;;;;;;;11.27;100.00;96266.53;15300391;19;20023;-83
2023/03/13 22:58:39;;;;;;;0.32;0.30;;;;;;;11.17;100.00;96269.72;15308203;19;20014;-84
2023/03/13 23:04:04;;;;;;;0.77;0.40;;;;;;;9.91;100.00;96288.06;15307685;19;20022;-86
2023/03/13 23:09:36;;;;;;;1.40;0.40;;;;;;;9.79;100.00;96294.09;15306990;19;20047;-83
2023/03/13 23:15:18;;;;;;;2.83;0.40;;;;;;;9.76;100.00;96310.63;15309706;19;20495;-84
2023/03/13 23:20:47;;;;;;;0.38;0.38;;;;;;;9.74;100.00;96291.19;15304707;19;20019;-87
2023/03/13 23:26:21;;;;;;;0.30;0.30;;;;;;;9.73;100.00;96288.72;15294970;19;20387;-84
2023/03/13 23:31:48;;;;;;;1.23;0.47;;;;;;;9.67;100.00;96303.81;15289179;19;20010;-84
2023/03/13 23:37:20;;;;;;;0.50;0.35;;;;;;;9.68;100.00;96271.34;15267485;19;20415;-55
2023/03/13 23:42:46;;;;;;;0.20;0.20;;;;;;;9.66;100.00;96288.72;15267313;19;20010;-50
2023/03/13 23:48:15;;;;;;;0.30;0.30;;;;;;;9.66;100.00;96267.22;15267091;19;20271;-51
2023/03/13 23:53:40;;;;;;;0.68;0.40;;;;;;;9.65;100.00;96262.88;15266943;19;20479;-50
2023/03/13 23:59:06;;;;;;;0.30;0.30;;;;;;;9.61;100.00;96269.69;15266412;19;20018;-54
